Argus, CA

2:36 PM PDT on October 20, 2014 (GMT -0700)
Searles Valley | Change Station
CLOSE
Current Station
Personal Weather Station
Location: Trona, CA
Elevation: 1696 ft
Nearby Weather Stations

Elev 1696 ft 35.77 °N, 117.38 °W | Updated 2 seconds ago

Clear
Clear
91.4 °F
Feels Like 87 °F
N
6.0
Wind Variable Wind from SE
Gusts 15.2 mph

Today
High -- | Low -- °F
--% Chance of Precip.
Yesterday
High -- | Low -- °F
Precip. -- in
7:00 AM 6:07 PM
Waning Crescent, 9% visible
Pressure 29.80 in
Visibility 10.0 miles
Clouds Few 16000 ft
Heat Index 87 °F
Dew Point 37 °F
Humidity 15%
Rainfall 0.00 in
Snow Depth Not available.
UV 5 out of 12
Pollen 4.50 out of 12
Ozone Good
Flu Activity Sporadic
METAR KNID 202056Z 17017G25KT 10SM FEW160 31/04 A2984 RMK AO2 SLP090 T03060039 56020 $

More Conditions Fewer Conditions

Pressure 29.80 in
Visibility 10.0 miles
Clouds Few 16000 ft
Heat Index 87 °F
Dew Point 37 °F
Humidity 15%
Rainfall 0.00 in
Snow Depth Not available.
UV 5 out of 12
Pollen 4.50 out of 12
Ozone Good
Flu Activity Sporadic
METAR KNID 202056Z 17017G25KT 10SM FEW160 31/04 A2984 RMK AO2 SLP090 T03060039 56020 $

More Conditions Fewer Conditions

10-Day Weather Forecast

Almanac

Astronomy

Oct. 20, 2014 Rise Set
Actual Time 7:00 AM PDT 6:07 PM PDT
Civil Twilight 6:34 AM PDT 6:33 PM PDT
Nautical Twilight 6:04 AM PDT 7:03 PM PDT
Astronomical Twilight 5:35 AM PDT 7:32 PM PDT
Moon 3:59 AM PDT 4:27 PM PDT
Length of Visible Light 11h 58m
Length of Day
11h 06m
Waning Crescent, 9% of the Moon is Illuminated
Today
Waning Crescent
Oct 23
New
Oct 30
First Quarter
Nov 6
Full
Nov 14
Last Quarter

Today's Extremes

State Highs State Lows

Community

WunderPhotos

Upload Photos

1,763,525 photos uploaded!

WunderBlogs® & News

Nearby

Air Quality

  Air Quality AQ Index Pollutant
Yesterday Good
OZONE
Yesterday Good
PM10
Current Good
OZONE
Tuesday Good
PM10
Tuesday Good
OZONE
Tuesday Good
CO
Tuesday Good
NO2

Snow Depth

Station Depth Elevation
Leavitt Meadows 0 in 7200 ft
Sonora Pass 0 in 8800 ft
Summit Meadow 0 in 9122 ft
Monitor Pass 0 in 8350 ft
Blue Lakes 0 in 8000 ft

Earthquake Activity

City Distance Mag. Time & Date
Lone Pine, California 61 miles 2.6 5:26 AM PDT
2014-10-19
Dixon Lane-Meadow Creek, California 138 miles 2.5 5:32 PM PDT
2014-10-18
Fort Irwin, California 71 miles 3.1 6:03 AM PDT
2014-10-17
Minimum magnitude displayed is 2.5.

Coastal Water Temperatures

Place Temperature
No Stations Reporting

Nearby Weather Stations